JEF22 LFLL-LSZA
Flight info
| Callsign | JEF22 |
|---|---|
| Flight time | 0h 36m |
| Altitude | 22000 |
| Route | RISOR T47 GEMLA DCT VANAS DCT MEDAM DCT NITAM DCT MOGBO DCT TOP |
| Aircraft | CL60/M-SBDE2E3FGHIJ1J3J4J5M1P2RWXYZ/LB1D1 |
Departure
| Time | 2026-04-29 08:54 |
|---|---|
| Airport | Lyon Saint-Exupéry Airport (LFLL) |
Arrival
| Time | 2026-04-29 09:30 |
|---|---|
| Airport | Lugano Airport (LSZA) |
| Time | Latitude | Longitude | Altitude | Speed | Heading |
|---|---|---|---|---|---|
| 2026-04-29 08:28 | 45.72715 | 5.08177 | 828 ft | 0 kts | 189° |
| 2026-04-29 08:51 | 45.72713 | 5.08177 | 828 ft | 1 kts | 189° |
| 2026-04-29 08:51 | 45.72695 | 5.08192 | 828 ft | 5 kts | 102° |
| 2026-04-29 08:51 | 45.72685 | 5.08256 | 828 ft | 5 kts | 109° |
| 2026-04-29 08:52 | 45.72671 | 5.08332 | 828 ft | 9 kts | 94° |
| 2026-04-29 08:52 | 45.72610 | 5.08378 | 828 ft | 13 kts | 175° |
| 2026-04-29 08:52 | 45.72519 | 5.08388 | 828 ft | 9 kts | 176° |
| 2026-04-29 08:52 | 45.72481 | 5.08400 | 828 ft | 7 kts | 148° |
| 2026-04-29 08:53 | 45.72445 | 5.08474 | 828 ft | 11 kts | 105° |
| 2026-04-29 08:53 | 45.72424 | 5.08598 | 828 ft | 14 kts | 105° |
| 2026-04-29 08:53 | 45.72395 | 5.08758 | 828 ft | 17 kts | 104° |
| 2026-04-29 08:53 | 45.72382 | 5.08865 | 828 ft | 5 kts | 46° |
| 2026-04-29 08:54 | 45.72450 | 5.08862 | 828 ft | 26 kts | 354° |
| 2026-04-29 08:54 | 45.73045 | 5.08792 | 829 ft | 141 kts | 355° |
| 2026-04-29 08:54 | 45.74172 | 5.08619 | 1494 ft | 177 kts | 352° |
| 2026-04-29 08:54 | 45.75390 | 5.08397 | 2568 ft | 183 kts | 355° |
| 2026-04-29 08:55 | 45.76724 | 5.08248 | 3373 ft | 208 kts | 358° |
| 2026-04-29 08:55 | 45.78229 | 5.08096 | 4134 ft | 229 kts | 358° |
| 2026-04-29 08:55 | 45.79927 | 5.07926 | 4951 ft | 263 kts | 357° |
| 2026-04-29 08:55 | 45.81778 | 5.07739 | 6314 ft | 277 kts | 357° |
| 2026-04-29 08:56 | 45.83638 | 5.08028 | 7830 ft | 280 kts | 22° |
| 2026-04-29 08:56 | 45.85153 | 5.09644 | 9283 ft | 282 kts | 54° |
| 2026-04-29 08:56 | 45.85885 | 5.12225 | 10647 ft | 288 kts | 81° |
| 2026-04-29 08:56 | 45.85950 | 5.15077 | 11985 ft | 294 kts | 97° |
| 2026-04-29 08:57 | 45.85418 | 5.17924 | 13049 ft | 308 kts | 115° |
| 2026-04-29 08:57 | 45.84139 | 5.20489 | 13976 ft | 325 kts | 136° |
| 2026-04-29 08:57 | 45.82498 | 5.22870 | 15017 ft | 337 kts | 126° |
| 2026-04-29 08:57 | 45.81533 | 5.25891 | 16050 ft | 345 kts | 107° |
| 2026-04-29 08:58 | 45.80875 | 5.29209 | 17122 ft | 353 kts | 106° |
| 2026-04-29 08:58 | 45.80200 | 5.32623 | 18133 ft | 359 kts | 106° |
| 2026-04-29 08:58 | 45.79508 | 5.36076 | 19128 ft | 365 kts | 106° |
| 2026-04-29 08:58 | 45.78791 | 5.39601 | 20081 ft | 370 kts | 106° |
| 2026-04-29 08:59 | 45.78049 | 5.43193 | 20975 ft | 377 kts | 106° |
| 2026-04-29 08:59 | 45.77284 | 5.46828 | 21832 ft | 384 kts | 107° |
| 2026-04-29 08:59 | 45.76485 | 5.50469 | 22634 ft | 391 kts | 108° |
| 2026-04-29 08:59 | 45.75642 | 5.54209 | 23451 ft | 397 kts | 108° |
| 2026-04-29 09:00 | 45.74782 | 5.58015 | 24275 ft | 403 kts | 108° |
| 2026-04-29 09:00 | 45.73913 | 5.61854 | 25049 ft | 409 kts | 108° |
| 2026-04-29 09:00 | 45.73024 | 5.65767 | 25731 ft | 417 kts | 108° |
| 2026-04-29 09:00 | 45.72110 | 5.69778 | 26010 ft | 426 kts | 108° |
| 2026-04-29 09:01 | 45.71182 | 5.73841 | 26049 ft | 425 kts | 108° |
| 2026-04-29 09:01 | 45.70246 | 5.77928 | 26046 ft | 437 kts | 108° |
| 2026-04-29 09:01 | 45.69302 | 5.82040 | 26044 ft | 447 kts | 108° |
| 2026-04-29 09:01 | 45.68319 | 5.86316 | 26043 ft | 452 kts | 108° |
| 2026-04-29 09:02 | 45.67323 | 5.90637 | 26045 ft | 454 kts | 108° |
| 2026-04-29 09:02 | 45.66332 | 5.94925 | 26047 ft | 455 kts | 108° |
| 2026-04-29 09:02 | 45.65329 | 5.99259 | 26052 ft | 456 kts | 108° |
| 2026-04-29 09:02 | 45.64330 | 6.03565 | 26062 ft | 457 kts | 109° |
| 2026-04-29 09:03 | 45.63312 | 6.07945 | 26070 ft | 457 kts | 109° |
| 2026-04-29 09:03 | 45.62309 | 6.12251 | 26082 ft | 458 kts | 109° |
| 2026-04-29 09:03 | 45.61297 | 6.16586 | 26104 ft | 458 kts | 109° |
| 2026-04-29 09:03 | 45.60289 | 6.20897 | 26107 ft | 458 kts | 108° |
| 2026-04-29 09:04 | 45.59259 | 6.25289 | 26111 ft | 458 kts | 108° |
| 2026-04-29 09:04 | 45.58248 | 6.29593 | 26113 ft | 458 kts | 109° |
| 2026-04-29 09:04 | 45.57210 | 6.33924 | 26113 ft | 458 kts | 110° |
| 2026-04-29 09:04 | 45.56057 | 6.38125 | 26122 ft | 458 kts | 112° |
| 2026-04-29 09:05 | 45.54864 | 6.42365 | 26116 ft | 458 kts | 112° |
| 2026-04-29 09:05 | 45.53667 | 6.46615 | 26118 ft | 458 kts | 112° |
| 2026-04-29 09:05 | 45.52473 | 6.50850 | 26116 ft | 458 kts | 112° |
| 2026-04-29 09:05 | 45.51282 | 6.55066 | 26137 ft | 458 kts | 112° |
| 2026-04-29 09:06 | 45.50091 | 6.59275 | 26142 ft | 458 kts | 111° |
| 2026-04-29 09:06 | 45.48888 | 6.63519 | 26140 ft | 458 kts | 111° |
| 2026-04-29 09:06 | 45.47704 | 6.67688 | 26110 ft | 458 kts | 112° |
| 2026-04-29 09:06 | 45.46383 | 6.71865 | 26131 ft | 457 kts | 120° |
| 2026-04-29 09:07 | 45.44633 | 6.75284 | 26144 ft | 456 kts | 134° |
| 2026-04-29 09:07 | 45.42317 | 6.78136 | 26134 ft | 455 kts | 145° |
| 2026-04-29 09:07 | 45.39728 | 6.80729 | 26126 ft | 455 kts | 146° |
| 2026-04-29 09:07 | 45.37134 | 6.83324 | 26132 ft | 455 kts | 146° |
| 2026-04-29 09:08 | 45.34517 | 6.85943 | 26133 ft | 454 kts | 146° |
| 2026-04-29 09:08 | 45.31908 | 6.88551 | 26136 ft | 454 kts | 146° |
| 2026-04-29 09:08 | 45.29328 | 6.91127 | 26144 ft | 454 kts | 146° |
| 2026-04-29 09:08 | 45.26724 | 6.93760 | 26139 ft | 455 kts | 143° |
| 2026-04-29 09:09 | 45.24378 | 6.96774 | 26136 ft | 455 kts | 136° |
| 2026-04-29 09:09 | 45.22100 | 6.99934 | 26148 ft | 455 kts | 136° |
| 2026-04-29 09:09 | 45.19826 | 7.03073 | 26146 ft | 456 kts | 136° |
| 2026-04-29 09:09 | 45.17537 | 7.06227 | 26130 ft | 456 kts | 136° |
| 2026-04-29 09:10 | 45.15232 | 7.09398 | 26122 ft | 457 kts | 136° |
| 2026-04-29 09:10 | 45.12973 | 7.12503 | 26116 ft | 457 kts | 136° |
| 2026-04-29 09:10 | 45.10705 | 7.15707 | 26111 ft | 457 kts | 132° |
| 2026-04-29 09:10 | 45.08809 | 7.19299 | 26102 ft | 458 kts | 125° |
| 2026-04-29 09:11 | 45.06983 | 7.23009 | 26128 ft | 457 kts | 125° |
| 2026-04-29 09:11 | 45.05148 | 7.26713 | 26133 ft | 457 kts | 125° |
| 2026-04-29 09:11 | 45.03331 | 7.30377 | 26133 ft | 457 kts | 125° |
| 2026-04-29 09:11 | 45.01488 | 7.34085 | 26127 ft | 457 kts | 125° |
| 2026-04-29 09:12 | 44.99645 | 7.37822 | 26108 ft | 457 kts | 123° |
| 2026-04-29 09:12 | 44.98223 | 7.41840 | 26113 ft | 457 kts | 109° |
| 2026-04-29 09:12 | 44.97493 | 7.46212 | 26091 ft | 457 kts | 99° |
| 2026-04-29 09:12 | 44.96953 | 7.50686 | 26085 ft | 457 kts | 99° |
| 2026-04-29 09:13 | 44.96410 | 7.55100 | 26090 ft | 457 kts | 99° |
| 2026-04-29 09:13 | 44.95863 | 7.59532 | 26093 ft | 458 kts | 99° |
| 2026-04-29 09:13 | 44.95313 | 7.63971 | 26095 ft | 458 kts | 99° |
| 2026-04-29 09:13 | 44.94758 | 7.68443 | 26091 ft | 458 kts | 99° |
| 2026-04-29 09:14 | 44.94201 | 7.72909 | 26090 ft | 458 kts | 99° |
| 2026-04-29 09:14 | 44.93721 | 7.77317 | 26089 ft | 458 kts | 94° |
| 2026-04-29 09:14 | 44.93845 | 7.81832 | 26093 ft | 456 kts | 80° |
| 2026-04-29 09:14 | 44.94653 | 7.85912 | 26091 ft | 455 kts | 66° |
| 2026-04-29 09:15 | 44.96227 | 7.89900 | 26094 ft | 452 kts | 52° |
| 2026-04-29 09:15 | 44.98373 | 7.93177 | 26088 ft | 449 kts | 40° |
| 2026-04-29 09:15 | 45.00763 | 7.96059 | 26081 ft | 449 kts | 38° |
| 2026-04-29 09:15 | 45.03157 | 7.98939 | 25934 ft | 452 kts | 39° |
| 2026-04-29 09:16 | 45.05550 | 8.01825 | 25420 ft | 451 kts | 39° |
| 2026-04-29 09:16 | 45.07933 | 8.04706 | 24864 ft | 440 kts | 39° |
| 2026-04-29 09:16 | 45.10216 | 8.07470 | 24304 ft | 429 kts | 39° |
| 2026-04-29 09:16 | 45.12487 | 8.10221 | 23760 ft | 419 kts | 38° |
| 2026-04-29 09:17 | 45.14660 | 8.12855 | 23223 ft | 410 kts | 39° |
| 2026-04-29 09:17 | 45.16833 | 8.15493 | 22675 ft | 402 kts | 39° |
| 2026-04-29 09:17 | 45.18943 | 8.18055 | 22148 ft | 393 kts | 39° |
| 2026-04-29 09:17 | 45.21000 | 8.20556 | 21637 ft | 385 kts | 39° |
| 2026-04-29 09:18 | 45.23035 | 8.23033 | 21115 ft | 379 kts | 39° |
| 2026-04-29 09:18 | 45.24994 | 8.25418 | 20626 ft | 372 kts | 39° |
| 2026-04-29 09:18 | 45.26939 | 8.27789 | 20136 ft | 365 kts | 39° |
| 2026-04-29 09:18 | 45.28869 | 8.30142 | 19655 ft | 361 kts | 39° |
| 2026-04-29 09:19 | 45.30788 | 8.32484 | 19178 ft | 361 kts | 39° |
| 2026-04-29 09:19 | 45.32731 | 8.34857 | 18681 ft | 360 kts | 39° |
| 2026-04-29 09:19 | 45.34609 | 8.37155 | 18208 ft | 357 kts | 39° |
| 2026-04-29 09:19 | 45.36505 | 8.39477 | 17758 ft | 355 kts | 39° |
| 2026-04-29 09:20 | 45.38363 | 8.41754 | 17247 ft | 352 kts | 39° |
| 2026-04-29 09:20 | 45.40231 | 8.44046 | 16805 ft | 349 kts | 39° |
| 2026-04-29 09:20 | 45.42107 | 8.46349 | 16333 ft | 347 kts | 39° |
| 2026-04-29 09:20 | 45.43898 | 8.48551 | 15859 ft | 344 kts | 39° |
| 2026-04-29 09:21 | 45.45728 | 8.50802 | 15412 ft | 340 kts | 39° |
| 2026-04-29 09:21 | 45.47498 | 8.52982 | 14958 ft | 335 kts | 39° |
| 2026-04-29 09:21 | 45.49256 | 8.55149 | 14520 ft | 329 kts | 39° |
| 2026-04-29 09:21 | 45.51001 | 8.57302 | 14086 ft | 324 kts | 39° |
| 2026-04-29 09:22 | 45.52700 | 8.59399 | 13607 ft | 322 kts | 39° |
| 2026-04-29 09:22 | 45.54388 | 8.61484 | 13109 ft | 320 kts | 40° |
| 2026-04-29 09:22 | 45.56078 | 8.63575 | 12602 ft | 317 kts | 39° |
| 2026-04-29 09:22 | 45.57703 | 8.65587 | 12112 ft | 314 kts | 40° |
| 2026-04-29 09:23 | 45.59356 | 8.67633 | 11609 ft | 311 kts | 40° |
| 2026-04-29 09:23 | 45.60967 | 8.69630 | 11113 ft | 309 kts | 40° |
| 2026-04-29 09:23 | 45.62578 | 8.71628 | 10616 ft | 306 kts | 40° |
| 2026-04-29 09:23 | 45.64274 | 8.73471 | 10119 ft | 302 kts | 27° |
| 2026-04-29 09:24 | 45.66180 | 8.74537 | 9624 ft | 300 kts | 18° |
| 2026-04-29 09:24 | 45.68170 | 8.75491 | 9115 ft | 298 kts | 19° |
| 2026-04-29 09:24 | 45.70112 | 8.76436 | 8604 ft | 294 kts | 19° |
| 2026-04-29 09:24 | 45.72007 | 8.77359 | 8070 ft | 284 kts | 19° |
| 2026-04-29 09:25 | 45.73863 | 8.78264 | 7569 ft | 275 kts | 19° |
| 2026-04-29 09:25 | 45.75648 | 8.79134 | 7077 ft | 267 kts | 19° |
| 2026-04-29 09:25 | 45.77390 | 8.79984 | 6624 ft | 263 kts | 19° |
| 2026-04-29 09:25 | 45.79121 | 8.80830 | 6222 ft | 261 kts | 19° |
| 2026-04-29 09:26 | 45.80815 | 8.81658 | 6103 ft | 246 kts | 19° |
| 2026-04-29 09:26 | 45.82373 | 8.82419 | 6108 ft | 229 kts | 19° |
| 2026-04-29 09:26 | 45.83828 | 8.83131 | 6115 ft | 213 kts | 19° |
| 2026-04-29 09:26 | 45.85236 | 8.83821 | 6103 ft | 205 kts | 19° |
| 2026-04-29 09:27 | 45.86520 | 8.84450 | 6107 ft | 189 kts | 19° |
| 2026-04-29 09:27 | 45.87759 | 8.85055 | 6096 ft | 186 kts | 19° |
| 2026-04-29 09:27 | 45.88994 | 8.85572 | 5836 ft | 182 kts | 16° |
| 2026-04-29 09:27 | 45.90192 | 8.86083 | 5342 ft | 177 kts | 18° |
| 2026-04-29 09:28 | 45.91325 | 8.86616 | 4875 ft | 168 kts | 19° |
| 2026-04-29 09:28 | 45.92437 | 8.87155 | 4186 ft | 170 kts | 19° |
| 2026-04-29 09:28 | 45.93480 | 8.87664 | 3808 ft | 146 kts | 19° |
| 2026-04-29 09:28 | 45.94416 | 8.88120 | 3371 ft | 141 kts | 19° |
| 2026-04-29 09:29 | 45.95315 | 8.88560 | 2942 ft | 133 kts | 19° |
| 2026-04-29 09:29 | 45.97047 | 8.89374 | 2136 ft | 130 kts | 15° |
| 2026-04-29 09:29 | 45.97907 | 8.89755 | 1641 ft | 131 kts | 19° |
| 2026-04-29 09:30 | 45.98741 | 8.90207 | 1254 ft | 130 kts | 19° |
| 2026-04-29 09:30 | 45.99600 | 8.90634 | 1002 ft | 129 kts | 21° |
| 2026-04-29 09:30 | 46.00361 | 8.91026 | 920 ft | 106 kts | 20° |
| 2026-04-29 09:30 | 46.00851 | 8.91278 | 925 ft | 47 kts | 21° |
| 2026-04-29 09:31 | 46.01019 | 8.91375 | 929 ft | 11 kts | 28° |
| 2026-04-29 09:31 | 46.01028 | 8.91350 | 929 ft | 11 kts | 189° |
| 2026-04-29 09:31 | 46.00925 | 8.91314 | 926 ft | 17 kts | 202° |
| 2026-04-29 09:31 | 46.00794 | 8.91248 | 924 ft | 22 kts | 199° |
| 2026-04-29 09:32 | 46.00638 | 8.91169 | 922 ft | 25 kts | 199° |
| 2026-04-29 09:32 | 46.00494 | 8.91095 | 920 ft | 13 kts | 200° |
| 2026-04-29 09:32 | 46.00449 | 8.91066 | 920 ft | 4 kts | 240° |
| 2026-04-29 09:32 | 46.00454 | 8.91002 | 920 ft | 8 kts | 285° |
| 2026-04-29 09:33 | 46.00450 | 8.90957 | 919 ft | 6 kts | 206° |
| 2026-04-29 09:33 | 46.00406 | 8.90936 | 919 ft | 5 kts | 199° |
| 2026-04-29 09:33 | 46.00365 | 8.90915 | 919 ft | 8 kts | 200° |
| 2026-04-29 09:33 | 46.00304 | 8.90875 | 918 ft | 9 kts | 244° |
| 2026-04-29 09:34 | 46.00313 | 8.90816 | 918 ft | 5 kts | 288° |
| 2026-04-29 09:34 | 46.00317 | 8.90780 | 918 ft | 1 kts | 221° |
| 2026-04-29 09:34 | 46.00308 | 8.90776 | 918 ft | 0 kts | 195° |
| 2026-04-29 09:34 | 46.00290 | 8.90768 | 917 ft | 7 kts | 198° |
| 2026-04-29 09:35 | 46.00249 | 8.90747 | 917 ft | 5 kts | 200° |
| 2026-04-29 09:35 | 46.00246 | 8.90745 | 917 ft | 0 kts | 200° |